createdAt,value
2018-12-31T00:21:32.224Z,98.60
2018-12-31T00:32:24.178Z,98.56
2018-12-31T00:37:39.868Z,98.58
2018-12-31T00:42:44.151Z,98.69
2018-12-31T00:47:48.380Z,98.75
2018-12-31T01:03:50.441Z,98.76
2018-12-31T01:08:55.105Z,98.69
2018-12-31T01:13:59.336Z,98.70
2018-12-31T01:24:13.201Z,98.99
2018-12-31T01:29:17.494Z,99.06
2018-12-31T01:39:50.340Z,99.24
2018-12-31T01:44:54.630Z,99.31
2018-12-31T01:50:17.867Z,99.32
2018-12-31T01:55:22.093Z,99.33
2018-12-31T02:00:45.393Z,99.30
2018-12-31T02:05:49.616Z,99.20
2018-12-31T02:10:53.841Z,99.27
2018-12-31T02:16:17.136Z,99.25
2018-12-31T02:21:21.368Z,99.18
2018-12-31T02:26:44.534Z,99.15
2018-12-31T02:32:07.830Z,99.16
2018-12-31T02:37:12.070Z,99.26
2018-12-31T02:42:16.325Z,99.16
2018-12-31T02:47:39.630Z,99.09
2018-12-31T02:57:53.436Z,98.86
2018-12-31T03:03:16.580Z,98.89
2018-12-31T03:13:31.175Z,99.02
2018-12-31T03:18:54.484Z,99.04
2018-12-31T03:39:28.176Z,99.83
2018-12-31T03:49:47.547Z,99.84
2018-12-31T03:54:51.825Z,99.85
2018-12-31T03:59:56.061Z,99.82
2018-12-31T04:05:00.290Z,99.81
2018-12-31T04:15:54.051Z,100.00
2018-12-31T04:20:58.280Z,100.00
2018-12-31T04:26:21.589Z,100.00
2018-12-31T04:31:25.836Z,100.00
2018-12-31T04:36:30.075Z,100.00
2018-12-31T04:41:34.304Z,99.95
2018-12-31T04:46:57.551Z,99.67
2018-12-31T04:52:01.870Z,99.52
2018-12-31T04:57:25.461Z,99.30
2018-12-31T05:02:29.717Z,99.23
2018-12-31T05:07:33.978Z,99.15
2018-12-31T05:12:38.213Z,99.16
2018-12-31T05:23:11.007Z,99.25
2018-12-31T05:28:15.233Z,99.38
2018-12-31T05:33:38.428Z,99.42
2018-12-31T05:39:01.599Z,99.36
2018-12-31T05:44:05.831Z,99.39
2018-12-31T05:49:22.075Z,99.39
2018-12-31T05:54:26.667Z,99.28
2018-12-31T06:04:59.659Z,99.28
2018-12-31T06:10:03.890Z,99.40
2018-12-31T06:20:17.786Z,99.39
2018-12-31T06:30:50.560Z,99.61
2018-12-31T06:35:54.794Z,99.67
2018-12-31T06:41:18.055Z,99.49
2018-12-31T06:46:41.212Z,99.34
2018-12-31T06:51:56.949Z,99.21
2018-12-31T06:57:01.189Z,99.33
2018-12-31T07:17:35.765Z,99.40
2018-12-31T07:22:59.383Z,99.34
2018-12-31T07:28:03.785Z,99.30
2018-12-31T07:33:27.430Z,99.24
2018-12-31T07:43:41.728Z,99.18
2018-12-31T07:48:45.995Z,99.29
2018-12-31T07:54:02.384Z,99.14
2018-12-31T08:04:16.425Z,99.12
2018-12-31T08:15:08.826Z,99.33
2018-12-31T08:20:31.992Z,99.44
2018-12-31T08:25:36.236Z,99.45
2018-12-31T08:36:09.675Z,99.37
2018-12-31T08:41:32.990Z,99.17
2018-12-31T08:46:56.562Z,99.05
2018-12-31T08:57:23.179Z,98.22
2018-12-31T09:07:37.627Z,97.81
2018-12-31T09:18:10.714Z,97.31
2018-12-31T09:23:34.228Z,96.93
2018-12-31T09:28:38.468Z,97.15
2018-12-31T09:39:30.803Z,96.94
2018-12-31T09:44:54.132Z,96.80
2018-12-31T09:50:17.443Z,96.18
2018-12-31T10:00:51.010Z,96.04
2018-12-31T10:05:55.274Z,95.44
2018-12-31T10:11:18.583Z,95.45
2018-12-31T10:21:51.640Z,95.00
2018-12-31T10:26:55.941Z,94.63
2018-12-31T10:32:00.187Z,94.31
2018-12-31T10:37:23.497Z,94.47
2018-12-31T10:42:27.759Z,94.26
2018-12-31T10:47:51.004Z,94.17
2018-12-31T10:52:55.249Z,94.96
2018-12-31T11:03:28.559Z,95.12
2018-12-31T11:08:51.868Z,94.96
2018-12-31T11:24:54.229Z,94.91
2018-12-31T11:35:08.929Z,94.35
2018-12-31T11:40:32.260Z,93.96
2018-12-31T11:45:55.605Z,93.53
2018-12-31T11:51:22.064Z,93.17
2018-12-31T12:01:36.712Z,93.31
2018-12-31T12:06:52.563Z,93.71
2018-12-31T12:17:25.972Z,93.85
2018-12-31T12:22:30.321Z,94.43
2018-12-31T12:27:53.643Z,94.68
2018-12-31T12:43:19.759Z,95.60
2018-12-31T12:53:33.824Z,95.81
2018-12-31T12:58:38.715Z,95.97
2018-12-31T13:03:42.978Z,96.02
2018-12-31T13:08:47.284Z,96.17
2018-12-31T13:13:51.548Z,96.37
2018-12-31T13:18:55.815Z,96.35
2018-12-31T13:24:00.074Z,96.65
2018-12-31T13:39:56.488Z,96.47
2018-12-31T13:45:40.178Z,96.52
2018-12-31T13:50:44.528Z,96.32
2018-12-31T13:56:07.803Z,95.85
2018-12-31T14:01:12.145Z,95.96
2018-12-31T14:11:45.736Z,95.21
2018-12-31T14:17:09.172Z,95.29
2018-12-31T14:22:32.472Z,95.01
2018-12-31T14:27:37.094Z,95.08
2018-12-31T14:32:43.080Z,95.28
2018-12-31T14:37:47.371Z,95.43
2018-12-31T14:43:10.710Z,95.21
2018-12-31T14:48:34.287Z,95.45
2018-12-31T14:53:38.940Z,95.12
2018-12-31T14:59:02.323Z,94.84
2018-12-31T15:04:07.278Z,95.20
2018-12-31T15:09:30.613Z,95.43
2018-12-31T15:19:45.366Z,95.42
2018-12-31T15:25:09.011Z,95.80
2018-12-31T15:30:13.258Z,95.65
2018-12-31T15:35:17.654Z,95.93
2018-12-31T15:40:40.972Z,95.99
2018-12-31T15:46:04.295Z,96.04
2018-12-31T15:56:37.649Z,96.05
2018-12-31T16:02:00.990Z,96.08
2018-12-31T16:07:05.264Z,96.03
2018-12-31T16:12:28.578Z,95.92
2018-12-31T16:22:44.707Z,96.22
2018-12-31T16:27:48.956Z,96.20
2018-12-31T16:33:12.278Z,96.10
2018-12-31T16:38:16.519Z,96.25
2018-12-31T16:43:39.839Z,96.56
2018-12-31T16:49:03.430Z,96.64
2018-12-31T16:54:07.672Z,96.49
2018-12-31T16:59:11.926Z,96.41
2018-12-31T17:10:04.334Z,96.59
2018-12-31T17:20:49.998Z,96.67
2018-12-31T17:25:54.328Z,96.66
2018-12-31T17:36:29.662Z,96.71
2018-12-31T17:41:33.965Z,96.84
2018-12-31T17:46:38.237Z,96.77
2018-12-31T17:52:01.540Z,96.85
2018-12-31T18:02:56.872Z,96.85
2018-12-31T18:08:20.119Z,96.81
2018-12-31T18:13:24.404Z,96.89
2018-12-31T18:18:28.662Z,96.75
2018-12-31T18:23:45.164Z,96.58
2018-12-31T18:29:01.608Z,96.30
2018-12-31T18:39:15.803Z,96.38
2018-12-31T18:44:20.046Z,96.58
2018-12-31T18:49:24.363Z,96.57
2018-12-31T18:54:47.598Z,96.66
2018-12-31T18:59:51.845Z,96.57
2018-12-31T19:04:57.814Z,96.83
2018-12-31T19:10:21.169Z,96.66
2018-12-31T19:20:35.481Z,96.66
2018-12-31T19:25:58.759Z,96.60
2018-12-31T19:36:51.816Z,96.97
2018-12-31T19:42:15.021Z,96.96
2018-12-31T19:47:19.263Z,96.73
2018-12-31T20:03:03.245Z,96.70
2018-12-31T20:08:26.659Z,96.78
2018-12-31T20:24:28.343Z,96.59
2018-12-31T20:40:11.684Z,96.57
2018-12-31T20:45:15.923Z,96.54
2018-12-31T20:55:48.948Z,96.74
2018-12-31T21:16:41.118Z,96.66
2018-12-31T21:21:45.515Z,96.70
2018-12-31T21:32:30.902Z,96.42
2018-12-31T21:38:14.473Z,96.52
2018-12-31T21:43:37.812Z,96.47
2018-12-31T21:49:01.089Z,96.33
2018-12-31T21:54:24.424Z,96.58
2018-12-31T22:04:57.183Z,96.86
2018-12-31T22:10:20.519Z,96.75
2018-12-31T22:20:36.569Z,96.73
2018-12-31T22:26:01.913Z,97.03
2018-12-31T22:36:46.861Z,96.80
2018-12-31T22:41:51.201Z,96.94
2018-12-31T22:46:56.335Z,96.90
2018-12-31T22:52:41.000Z,96.72
2018-12-31T22:57:45.361Z,96.67
2018-12-31T23:02:49.653Z,96.48
2018-12-31T23:19:05.453Z,96.53
2018-12-31T23:24:09.900Z,96.33
2018-12-31T23:35:02.581Z,96.30
2018-12-31T23:40:19.304Z,96.02
2018-12-31T23:45:35.188Z,96.07
2018-12-31T23:50:52.210Z,95.90
2018-12-31T23:56:09.710Z,95.66
